Time;durP1;ratioP1;P1;durP2;ratioP2;P2;SDS_P1;SDS_P2;PMS_P1;PMS_P2;Temp;Humidity;BMP_temperature;BMP_pressure;BME280_temperature;BME280_humidity;BME280_pressure;Samples;Min_cycle;Max_cycle;Signal;HPM_P1;HPM_P2
2024/04/22 00:02:13;;;;;;;1.13;0.35;;;9.40;99.90;;;;;;5355381;26;20012;-80
2024/04/22 00:04:43;;;;;;;0.95;0.50;;;9.40;99.90;;;;;;5318363;26;20005;-80
2024/04/22 00:07:11;;;;;;;0.80;0.50;;;9.40;99.90;;;;;;5322484;26;20002;-82
2024/04/22 00:09:42;;;;;;;0.80;0.40;;;9.40;99.90;;;;;;5338283;26;20045;-80
2024/04/22 00:12:09;;;;;;;1.33;0.38;;;9.40;99.90;;;;;;5324102;26;20002;-80
2024/04/22 00:14:40;;;;;;;0.85;0.40;;;9.40;99.90;;;;;;5321185;26;20013;-80
2024/04/22 00:17:07;;;;;;;1.65;0.60;;;9.40;99.90;;;;;;5318171;26;20005;-79
2024/04/22 00:19:41;;;;;;;1.02;0.50;;;9.40;99.90;;;;;;5325099;26;20013;-82
2024/04/22 00:22:09;;;;;;;1.50;0.45;;;9.40;99.90;;;;;;5337050;26;20001;-80
2024/04/22 00:24:39;;;;;;;2.45;0.90;;;9.20;99.90;;;;;;5324037;26;20026;-80
2024/04/22 00:27:07;;;;;;;0.95;0.43;;;9.40;99.90;;;;;;5335867;26;20049;-83
2024/04/22 00:29:37;;;;;;;1.73;0.50;;;9.30;99.90;;;;;;5341097;26;20016;-80
2024/04/22 00:32:05;;;;;;;1.63;0.80;;;9.30;99.90;;;;;;5343988;26;20009;-80
2024/04/22 00:34:36;;;;;;;2.97;0.73;;;9.30;99.90;;;;;;5327238;26;20020;-79
2024/04/22 00:37:06;;;;;;;2.60;0.75;;;9.40;99.90;;;;;;5323832;26;20015;-79
2024/04/22 00:39:37;;;;;;;1.60;0.88;;;9.40;99.90;;;;;;5325710;26;20017;-79
2024/04/22 00:42:05;;;;;;;1.73;0.80;;;9.30;99.90;;;;;;5322006;26;20005;-79
2024/04/22 00:44:35;;;;;;;1.27;0.57;;;9.30;99.90;;;;;;5330608;26;20005;-80
2024/04/22 00:47:03;;;;;;;1.77;0.77;;;9.40;99.90;;;;;;5349434;26;20010;-80
2024/04/22 00:49:33;;;;;;;2.33;0.63;;;9.30;99.90;;;;;;5321098;26;20001;-79
2024/04/22 00:52:01;;;;;;;2.35;1.20;;;9.30;99.90;;;;;;5353976;26;20005;-79
2024/04/22 00:54:35;;;;;;;2.22;0.68;;;9.20;99.90;;;;;;5332128;26;20087;-79
2024/04/22 00:57:03;;;;;;;0.88;0.40;;;9.20;99.90;;;;;;5350842;26;20391;-79
2024/04/22 00:59:34;;;;;;;1.45;0.70;;;9.30;99.90;;;;;;5352439;26;20030;-79
2024/04/22 01:02:02;;;;;;;0.80;0.35;;;9.20;99.90;;;;;;5323364;26;20013;-79
2024/04/22 01:04:33;;;;;;;2.40;0.50;;;9.30;99.90;;;;;;5345624;26;20005;-79
2024/04/22 01:07:01;;;;;;;2.47;0.80;;;9.30;99.90;;;;;;5350472;26;20071;-79
2024/04/22 01:09:34;;;;;;;1.00;0.40;;;9.30;99.90;;;;;;5358897;26;20080;-80
2024/04/22 01:12:02;;;;;;;1.63;0.60;;;9.30;99.90;;;;;;5322170;26;20025;-80
2024/04/22 01:20:47;;;;;;;2.33;0.45;;;9.20;99.90;;;;;;5609590;21;20769;-82
2024/04/22 01:23:18;;;;;;;1.13;0.40;;;9.40;99.90;;;;;;5370178;26;20008;-85
2024/04/22 01:25:55;;;;;;;1.17;0.57;;;8.00;99.90;;;;;;5353258;26;20015;-84
2024/04/22 01:28:28;;;;;;;1.80;0.57;;;9.70;99.90;;;;;;5347448;26;20001;-85
2024/04/22 01:30:59;;;;;;;1.13;0.80;;;9.00;99.90;;;;;;5357262;26;20332;-82
2024/04/22 01:46:11;;;;;;;1.52;0.60;;;9.10;99.90;;;;;;5450390;21;19917;-85
2024/04/22 01:48:39;;;;;;;1.40;1.08;;;9.20;99.90;;;;;;5435183;26;19995;-85
2024/04/22 01:51:12;;;;;;;1.35;0.65;;;9.20;99.90;;;;;;5419998;26;20001;-85
2024/04/22 01:53:43;;;;;;;1.42;0.88;;;9.10;99.90;;;;;;5401543;26;20011;-82
2024/04/22 01:56:14;;;;;;;1.70;0.70;;;9.10;99.90;;;;;;5400406;26;19999;-85
2024/04/22 01:58:44;;;;;;;2.13;1.05;;;9.40;99.90;;;;;;5403030;26;20000;-83
2024/04/22 02:01:17;;;;;;;2.08;0.93;;;8.40;99.90;;;;;;5385902;26;20046;-85
2024/04/22 02:03:48;;;;;;;1.45;0.55;;;9.00;99.90;;;;;;5407328;26;20004;-85
2024/04/22 02:06:21;;;;;;;1.80;0.80;;;8.90;99.90;;;;;;5382393;26;20011;-83
2024/04/22 02:08:49;;;;;;;2.08;1.02;;;9.00;99.90;;;;;;5379754;26;20016;-86
2024/04/22 02:11:20;;;;;;;1.98;1.23;;;9.00;99.90;;;;;;5397542;26;20036;-83
2024/04/22 02:13:48;;;;;;;2.45;0.90;;;9.10;99.90;;;;;;5387032;26;20070;-85
2024/04/22 02:16:24;;;;;;;3.00;1.17;;;9.10;99.90;;;;;;5404437;26;20053;-87
2024/04/22 02:18:53;;;;;;;1.50;0.82;;;9.10;99.90;;;;;;5399765;26;20667;-84
2024/04/22 02:21:26;;;;;;;2.15;1.20;;;8.00;99.90;;;;;;5384670;26;20000;-84
2024/04/22 02:23:54;;;;;;;2.45;1.23;;;9.60;99.90;;;;;;5392921;26;20018;-79
2024/04/22 02:26:25;;;;;;;2.00;0.95;;;9.00;99.90;;;;;;5376328;26;20390;-78
2024/04/22 02:28:53;;;;;;;2.80;1.60;;;9.00;99.90;;;;;;5367950;26;20109;-78
2024/04/22 02:31:26;;;;;;;2.28;1.40;;;9.00;99.90;;;;;;5378224;26;21081;-79
2024/04/22 02:33:54;;;;;;;2.95;1.50;;;9.00;99.90;;;;;;5360502;26;20008;-79
2024/04/22 02:36:25;;;;;;;3.72;1.55;;;8.80;99.90;;;;;;5405657;26;19999;-80
2024/04/22 02:38:53;;;;;;;2.65;1.30;;;8.90;99.90;;;;;;5401597;26;20019;-79
2024/04/22 02:41:23;;;;;;;2.05;1.38;;;8.90;99.90;;;;;;5379742;26;20008;-79
2024/04/22 02:43:51;;;;;;;2.95;1.50;;;8.90;99.90;;;;;;5400548;26;20019;-79
2024/04/22 02:46:21;;;;;;;2.13;1.27;;;8.80;99.90;;;;;;5373823;26;20018;-79
2024/04/22 02:48:51;;;;;;;3.17;1.73;;;8.90;99.90;;;;;;5304339;27;20005;-79
2024/04/22 02:51:23;;;;;;;4.53;1.83;;;8.80;99.90;;;;;;5310657;27;20051;-79
2024/04/22 02:53:51;;;;;;;3.50;1.63;;;8.90;99.90;;;;;;5273930;27;20005;-79
2024/04/22 02:56:27;;;;;;;2.78;1.83;;;8.90;99.90;;;;;;5302308;27;20005;-80
2024/04/22 02:58:55;;;;;;;2.00;1.00;;;8.90;99.90;;;;;;5252184;27;20006;-79
2024/04/22 03:01:26;;;;;;;2.83;1.40;;;8.90;99.90;;;;;;5269984;27;20002;-79
2024/04/22 03:03:56;;;;;;;2.75;1.35;;;8.90;99.90;;;;;;5276918;27;20089;-79
2024/04/22 03:06:27;;;;;;;3.80;1.58;;;8.90;99.90;;;;;;5278084;27;20006;-78
2024/04/22 03:08:54;;;;;;;3.22;1.77;;;8.80;99.90;;;;;;5262033;27;20006;-79
2024/04/22 03:11:24;;;;;;;4.55;2.25;;;8.80;99.90;;;;;;5282422;27;20016;-79
2024/04/22 03:13:52;;;;;;;3.95;2.20;;;8.80;99.90;;;;;;5276477;27;20092;-78
2024/04/22 03:16:22;;;;;;;3.47;2.08;;;8.80;99.90;;;;;;5304806;27;20005;-78
2024/04/22 03:18:51;;;;;;;4.35;2.50;;;8.80;99.90;;;;;;5231838;27;20006;-79
2024/04/22 03:21:24;;;;;;;4.80;2.25;;;8.70;99.90;;;;;;5264140;27;20006;-79
2024/04/22 03:23:52;;;;;;;4.25;2.38;;;8.70;99.90;;;;;;5295370;26;20416;-79
2024/04/22 03:26:22;;;;;;;5.25;2.22;;;8.70;99.90;;;;;;5342095;26;20108;-79
2024/04/22 03:28:50;;;;;;;5.95;2.30;;;8.60;99.90;;;;;;5396573;26;20084;-78
2024/04/22 03:31:20;;;;;;;4.15;2.60;;;8.60;99.90;;;;;;5373505;26;20483;-78
2024/04/22 03:33:48;;;;;;;4.25;2.42;;;8.60;99.90;;;;;;5364740;26;20016;-83
2024/04/22 03:36:21;;;;;;;4.55;2.33;;;8.60;99.90;;;;;;5383614;26;20007;-83
2024/04/22 03:38:54;;;;;;;4.22;2.20;;;8.90;99.90;;;;;;5424272;26;20052;-83
2024/04/22 03:41:27;;;;;;;5.55;2.47;;;7.80;99.90;;;;;;5387013;26;20001;-84
2024/04/22 03:43:57;;;;;;;4.90;2.63;;;9.20;99.90;;;;;;5387439;26;20470;-82
2024/04/22 03:52:01;;;;;;;3.45;1.92;;;7.30;99.90;;;;;;5381740;26;20293;-83
2024/04/22 03:54:34;;;;;;;3.85;2.40;;;8.50;99.90;;;;;;5387796;26;20112;-83
2024/04/22 03:57:05;;;;;;;7.50;4.00;;;8.70;99.90;;;;;;5376902;26;20040;-83
2024/04/22 03:59:35;;;;;;;14.75;6.95;;;9.30;99.90;;;;;;5404110;26;20045;-80
2024/04/22 04:02:06;;;;;;;306.05;123.82;;;8.70;99.90;;;;;;5402582;26;20003;-82
2024/04/22 04:04:34;;;;;;;17.50;8.38;;;8.50;99.90;;;;;;5400480;26;19996;-79
2024/04/22 04:07:05;;;;;;;16.52;8.27;;;8.10;99.90;;;;;;5397942;26;20077;-80
2024/04/22 04:09:36;;;;;;;17.20;9.00;;;8.20;99.90;;;;;;5402007;26;20007;-81
2024/04/22 04:12:07;;;;;;;19.90;8.45;;;8.20;99.90;;;;;;5391374;26;20545;-81
2024/04/22 04:14:35;;;;;;;19.63;9.10;;;8.00;99.90;;;;;;5415606;26;20011;-82
2024/04/22 04:17:06;;;;;;;21.05;10.18;;;8.20;99.90;;;;;;5415739;26;20030;-82
2024/04/22 04:19:34;;;;;;;20.02;8.20;;;8.00;99.90;;;;;;5369835;26;20001;-83
2024/04/22 04:22:05;;;;;;;18.13;8.60;;;7.60;99.90;;;;;;5374389;26;20028;-82
2024/04/22 04:24:36;;;;;;;16.60;8.60;;;7.30;99.90;;;;;;5370455;26;20737;-81
2024/04/22 04:27:07;;;;;;;19.10;9.55;;;7.90;99.90;;;;;;5365957;26;20015;-81
2024/04/22 04:29:34;;;;;;;18.40;8.77;;;8.00;99.90;;;;;;5416494;26;20077;-81
2024/04/22 04:32:05;;;;;;;17.83;8.23;;;7.70;99.90;;;;;;5373977;26;20015;-81
2024/04/22 04:34:33;;;;;;;17.90;7.97;;;7.60;99.90;;;;;;5355292;26;20037;-84
2024/04/22 04:37:04;;;;;;;20.27;9.02;;;7.80;99.90;;;;;;5411186;26;20004;-81
2024/04/22 04:39:31;;;;;;;18.20;8.13;;;7.60;99.90;;;;;;5401667;26;20010;-80
2024/04/22 04:42:05;;;;;;;15.48;6.72;;;7.60;99.90;;;;;;5370607;26;20000;-79
2024/04/22 04:44:35;;;;;;;14.68;5.75;;;7.60;99.90;;;;;;5358682;26;20401;-75
2024/04/22 04:47:03;;;;;;;9.38;4.53;;;7.70;99.90;;;;;;5367846;26;20050;-77
2024/04/22 04:49:33;;;;;;;10.30;4.63;;;7.80;99.90;;;;;;5397599;26;20011;-77
2024/04/22 04:52:01;;;;;;;12.38;4.85;;;7.80;99.90;;;;;;5400069;26;20000;-77
2024/04/22 04:54:32;;;;;;;10.68;4.15;;;8.00;99.90;;;;;;5402009;26;19996;-78
2024/04/22 04:57:02;;;;;;;10.02;4.28;;;8.00;99.90;;;;;;5396731;26;20347;-79
2024/04/22 04:59:32;;;;;;;9.07;3.65;;;8.10;99.90;;;;;;5368416;26;20475;-77
2024/04/22 05:02:00;;;;;;;11.38;4.00;;;8.10;99.90;;;;;;5404835;26;19999;-77
2024/04/22 05:04:30;;;;;;;8.07;3.88;;;8.10;99.90;;;;;;5387466;26;20008;-78
2024/04/22 05:06:58;;;;;;;10.63;5.57;;;8.10;99.90;;;;;;5395890;26;20037;-78
2024/04/22 05:09:28;;;;;;;12.07;5.70;;;8.10;99.90;;;;;;5394361;26;20069;-77
2024/04/22 05:11:56;;;;;;;11.98;5.53;;;8.10;99.90;;;;;;5399536;26;20018;-77
2024/04/22 05:14:29;;;;;;;13.00;5.88;;;8.30;99.90;;;;;;5361312;26;20003;-78
2024/04/22 05:16:56;;;;;;;13.48;4.93;;;8.20;99.90;;;;;;5389354;26;20444;-78
2024/04/22 05:19:27;;;;;;;14.77;6.07;;;8.10;99.90;;;;;;5395246;26;20011;-78
2024/04/22 05:21:55;;;;;;;20.25;9.40;;;8.20;99.90;;;;;;5363097;26;20005;-78
2024/04/22 05:24:25;;;;;;;17.80;8.30;;;8.10;99.90;;;;;;5360781;26;20906;-77
2024/04/22 05:26:56;;;;;;;27.45;11.35;;;8.30;99.90;;;;;;5371432;26;19999;-78
2024/04/22 05:29:29;;;;;;;20.48;9.00;;;8.30;99.90;;;;;;5403761;26;19996;-78
2024/04/22 05:31:57;;;;;;;17.98;8.18;;;8.20;99.90;;;;;;5371850;26;20010;-78
2024/04/22 05:37:13;;;;;;;18.10;8.43;;;8.10;99.90;;;;;;5383441;26;20212;-79
2024/04/22 05:39:44;;;;;;;20.08;9.52;;;8.10;99.90;;;;;;5376646;26;20036;-78
2024/04/22 05:42:17;;;;;;;18.60;8.65;;;8.10;99.90;;;;;;5363108;26;20008;-76
2024/04/22 05:44:48;;;;;;;24.25;10.82;;;8.30;99.90;;;;;;5358544;26;20072;-79
2024/04/22 05:47:18;;;;;;;20.05;8.52;;;8.40;99.90;;;;;;5399789;26;20008;-75
2024/04/22 05:49:48;;;;;;;18.05;8.07;;;8.50;99.90;;;;;;5395443;26;19999;-77
2024/04/22 05:52:20;;;;;;;16.20;7.93;;;8.60;99.90;;;;;;5364736;26;20014;-77
2024/04/22 05:54:47;;;;;;;21.00;9.27;;;8.60;99.90;;;;;;5365995;26;20004;-76
2024/04/22 05:57:18;;;;;;;17.60;8.35;;;8.60;99.90;;;;;;5408855;26;20007;-77
2024/04/22 05:59:48;;;;;;;16.20;8.90;;;8.60;99.90;;;;;;5384729;26;20014;-76
2024/04/22 06:02:18;;;;;;;23.83;10.00;;;8.50;99.90;;;;;;5365414;26;20048;-76
2024/04/22 06:04:46;;;;;;;19.10;9.18;;;8.50;99.90;;;;;;5363641;26;20520;-76
2024/04/22 06:07:17;;;;;;;17.40;8.38;;;8.70;99.90;;;;;;5379225;26;20008;-77
2024/04/22 06:09:44;;;;;;;17.45;8.10;;;8.80;99.90;;;;;;5368002;26;20085;-78
2024/04/22 06:12:14;;;;;;;17.38;8.32;;;8.80;99.90;;;;;;5399378;26;20007;-76
2024/04/22 06:14:49;;;;;;;21.98;10.05;;;8.70;99.90;;;;;;5385640;26;20022;-76
2024/04/22 06:17:19;;;;;;;17.73;8.15;;;8.80;99.90;;;;;;5404387;26;19998;-76
2024/04/22 06:19:47;;;;;;;15.60;8.27;;;8.60;99.90;;;;;;5401978;26;20086;-76
2024/04/22 06:22:17;;;;;;;41.65;17.38;;;8.60;99.90;;;;;;5368775;26;20001;-77
2024/04/22 06:24:47;;;;;;;17.60;8.63;;;8.70;99.90;;;;;;5403448;26;20028;-75
2024/04/22 06:27:17;;;;;;;20.42;9.13;;;8.70;99.90;;;;;;5361925;26;20055;-76
2024/04/22 06:29:45;;;;;;;28.98;11.02;;;8.80;99.90;;;;;;5401783;26;20500;-75
2024/04/22 06:32:18;;;;;;;20.63;10.30;;;8.90;99.90;;;;;;5371479;26;20008;-78
2024/04/22 06:34:45;;;;;;;19.20;8.85;;;8.70;99.90;;;;;;5379289;26;20004;-76
2024/04/22 06:37:16;;;;;;;22.27;10.50;;;8.80;99.90;;;;;;5365244;26;20011;-77
2024/04/22 06:39:43;;;;;;;20.80;9.43;;;8.80;99.90;;;;;;5369595;26;20004;-75
2024/04/22 06:42:14;;;;;;;20.95;10.00;;;8.90;99.90;;;;;;5368273;26;20008;-76
2024/04/22 06:44:42;;;;;;;26.58;12.07;;;8.90;99.90;;;;;;5364026;26;20005;-77
2024/04/22 06:47:12;;;;;;;19.02;9.52;;;9.00;99.90;;;;;;5366884;26;20000;-76
2024/04/22 06:49:43;;;;;;;26.13;11.32;;;8.60;99.90;;;;;;5395812;26;20042;-74
2024/04/22 06:52:13;;;;;;;21.08;9.77;;;8.90;99.90;;;;;;5359388;26;20539;-75
2024/04/22 06:54:41;;;;;;;20.30;10.02;;;9.00;99.90;;;;;;5369856;26;20081;-76
2024/04/22 06:57:11;;;;;;;19.10;9.88;;;8.90;99.90;;;;;;5378106;26;19999;-76
2024/04/22 06:59:39;;;;;;;18.85;10.18;;;9.00;99.90;;;;;;5400927;26;19999;-75
2024/04/22 07:02:09;;;;;;;20.45;9.90;;;8.90;99.90;;;;;;5385813;26;20015;-74
2024/04/22 07:04:45;;;;;;;24.50;11.52;;;8.90;99.90;;;;;;5373206;26;20524;-77
2024/04/22 07:07:15;;;;;;;20.70;10.23;;;9.10;99.90;;;;;;5380775;26;19999;-78
2024/04/22 07:09:43;;;;;;;22.45;10.75;;;9.10;99.90;;;;;;5360787;26;20030;-78
2024/04/22 07:12:13;;;;;;;22.05;10.07;;;9.10;99.90;;;;;;5360381;26;20046;-77
2024/04/22 07:14:41;;;;;;;27.00;13.32;;;9.10;99.90;;;;;;5397255;26;20030;-77
2024/04/22 07:17:12;;;;;;;27.98;13.90;;;9.10;99.90;;;;;;5394020;26;20455;-78
2024/04/22 07:19:40;;;;;;;21.20;11.07;;;9.20;99.90;;;;;;5401588;26;20015;-77
2024/04/22 07:22:14;;;;;;;21.50;11.57;;;9.20;99.90;;;;;;5405683;26;20012;-78
2024/04/22 07:24:41;;;;;;;19.58;10.73;;;9.30;99.90;;;;;;5405125;26;20346;-77
2024/04/22 07:27:31;;;;;;;21.17;10.35;;;9.30;99.90;;;;;;5367072;26;20490;-77
2024/04/22 07:29:59;;;;;;;20.02;10.20;;;9.50;99.90;;;;;;5395460;26;20014;-78
2024/04/22 07:32:30;;;;;;;20.50;9.90;;;9.60;99.90;;;;;;5364291;26;20069;-78
2024/04/22 07:34:59;;;;;;;18.27;9.98;;;9.60;99.90;;;;;;5373085;26;20008;-77
2024/04/22 07:37:37;;;;;;;19.02;9.52;;;9.60;99.90;;;;;;5394008;26;20341;-76
2024/04/22 07:40:13;;;;;;;21.30;11.10;;;9.70;99.90;;;;;;5363987;26;20004;-78
2024/04/22 07:42:43;;;;;;;22.33;11.40;;;10.00;99.90;;;;;;5362642;26;20004;-77
2024/04/22 07:45:12;;;;;;;18.35;9.35;;;10.00;99.90;;;;;;5356719;26;20004;-80
2024/04/22 07:47:43;;;;;;;15.18;8.43;;;9.90;99.90;;;;;;5369917;26;20000;-79
2024/04/22 07:50:11;;;;;;;16.40;9.45;;;10.10;99.90;;;;;;5400024;26;19997;-79
2024/04/22 07:52:44;;;;;;;16.80;8.40;;;9.90;99.90;;;;;;5381070;26;20455;-79
2024/04/22 07:55:13;;;;;;;14.85;8.85;;;9.80;99.90;;;;;;5372278;26;20072;-80
2024/04/22 07:57:48;;;;;;;16.33;8.95;;;9.90;99.90;;;;;;5364164;26;20458;-79
2024/04/22 08:00:19;;;;;;;20.42;10.65;;;9.90;99.90;;;;;;5363491;26;20039;-79
2024/04/22 08:02:50;;;;;;;16.35;8.98;;;9.80;99.90;;;;;;5363605;26;20005;-79
2024/04/22 08:05:19;;;;;;;20.58;11.52;;;9.80;99.90;;;;;;5405096;26;20478;-79
2024/04/22 08:07:59;;;;;;;17.63;9.38;;;9.90;99.90;;;;;;5393964;26;20008;-79
2024/04/22 08:10:27;;;;;;;16.92;8.77;;;10.00;99.90;;;;;;5396732;26;20004;-78
2024/04/22 08:12:58;;;;;;;15.65;9.00;;;10.00;99.90;;;;;;5380793;26;19999;-80
2024/04/22 08:15:26;;;;;;;17.35;9.48;;;10.00;99.90;;;;;;5394189;26;23687;-76
2024/04/22 08:17:56;;;;;;;17.33;8.45;;;10.10;99.90;;;;;;5393415;26;20004;-74
2024/04/22 08:20:24;;;;;;;17.42;8.88;;;9.90;99.90;;;;;;5390037;26;19999;-76
2024/04/22 08:22:59;;;;;;;16.55;8.43;;;9.80;99.90;;;;;;5403734;26;20034;-73
2024/04/22 08:25:27;;;;;;;17.73;9.32;;;9.80;99.90;;;;;;5361068;26;20005;-75
2024/04/22 08:27:57;;;;;;;16.30;8.35;;;10.00;99.90;;;;;;5395534;26;19995;-76
2024/04/22 08:30:25;;;;;;;14.27;7.45;;;9.90;99.90;;;;;;5402508;26;20493;-76
2024/04/22 08:32:55;;;;;;;12.85;7.22;;;9.90;99.90;;;;;;5396833;26;20020;-76
2024/04/22 08:35:23;;;;;;;15.43;7.38;;;9.60;99.90;;;;;;5370167;26;20004;-77
2024/04/22 08:37:53;;;;;;;15.07;7.95;;;9.70;99.90;;;;;;5404628;26;20004;-77
2024/04/22 08:40:23;;;;;;;12.43;7.13;;;9.80;99.90;;;;;;5405877;26;20022;-77
2024/04/22 08:42:56;;;;;;;13.55;7.60;;;9.90;99.90;;;;;;5389331;26;20007;-79
2024/04/22 08:45:24;;;;;;;12.85;6.85;;;9.90;99.90;;;;;;5404406;26;20424;-77
2024/04/22 08:47:54;;;;;;;13.65;6.97;;;10.00;99.90;;;;;;5365357;26;20064;-78
2024/04/22 08:50:22;;;;;;;16.25;7.70;;;10.00;99.90;;;;;;5413296;26;20008;-76
2024/04/22 08:52:52;;;;;;;13.50;7.22;;;10.00;99.90;;;;;;5366825;26;20471;-75
2024/04/22 08:55:27;;;;;;;13.00;7.35;;;10.00;99.90;;;;;;5363199;26;20031;-76
2024/04/22 08:57:57;;;;;;;16.55;8.07;;;9.90;99.90;;;;;;5395117;26;20019;-77
2024/04/22 09:00:25;;;;;;;14.98;8.02;;;9.90;99.90;;;;;;5369291;26;20081;-76
2024/04/22 09:02:55;;;;;;;15.35;7.20;;;9.90;99.90;;;;;;5400653;26;20603;-76
2024/04/22 09:05:23;;;;;;;12.73;6.28;;;9.90;99.90;;;;;;5398726;26;22300;-77
2024/04/22 09:07:54;;;;;;;12.70;6.78;;;9.80;99.90;;;;;;5357032;26;20018;-77
2024/04/22 09:10:22;;;;;;;14.35;6.78;;;9.90;99.90;;;;;;5403326;26;20459;-77
2024/04/22 09:13:19;;;;;;;10.13;5.47;;;9.90;99.90;;;;;;5378593;26;20003;-78
2024/04/22 09:15:53;;;;;;;11.48;5.65;;;9.90;99.90;;;;;;5361659;26;20003;-76
2024/04/22 09:18:24;;;;;;;11.10;6.47;;;9.90;99.90;;;;;;5368035;26;20035;-76
2024/04/22 09:21:04;;;;;;;12.18;6.38;;;9.80;99.90;;;;;;5359394;26;20008;-77
2024/04/22 09:23:36;;;;;;;12.63;6.47;;;10.00;99.90;;;;;;5370558;26;20073;-77
2024/04/22 09:26:05;;;;;;;11.57;6.95;;;9.80;99.90;;;;;;5367979;26;20008;-81
2024/04/22 09:28:40;;;;;;;11.98;6.15;;;10.00;99.90;;;;;;5370604;26;20022;-82
2024/04/22 09:31:09;;;;;;;12.32;6.18;;;10.20;99.90;;;;;;5362535;26;20019;-81
2024/04/22 09:33:39;;;;;;;11.70;6.18;;;10.10;99.90;;;;;;5367491;26;20008;-82
2024/04/22 09:36:10;;;;;;;10.80;6.32;;;10.10;99.90;;;;;;5393507;26;20001;-82
2024/04/22 09:38:41;;;;;;;10.68;5.78;;;10.10;99.90;;;;;;5376699;26;20022;-82
2024/04/22 09:41:15;;;;;;;11.73;6.75;;;10.10;99.90;;;;;;5387798;26;20347;-82
2024/04/22 09:43:53;;;;;;;12.10;6.18;;;10.20;99.90;;;;;;5371536;26;20552;-82
2024/04/22 09:46:30;;;;;;;12.85;7.63;;;10.30;99.90;;;;;;5404549;26;20000;-82
2024/04/22 09:49:05;;;;;;;16.23;7.65;;;10.30;99.90;;;;;;5395194;26;20474;-83
2024/04/22 09:51:35;;;;;;;29.75;18.42;;;11.00;99.90;;;;;;5385340;26;20424;-81
2024/04/22 09:54:07;;;;;;;16.55;8.07;;;10.30;99.90;;;;;;5401566;26;20015;-81
2024/04/22 09:56:37;;;;;;;10.90;5.80;;;10.30;99.90;;;;;;5386094;26;20017;-82
2024/04/22 09:59:11;;;;;;;11.93;6.05;;;10.50;99.90;;;;;;5417239;26;19999;-82
2024/04/22 10:01:43;;;;;;;10.50;5.65;;;10.40;99.90;;;;;;5387742;26;20035;-82
2024/04/22 10:04:14;;;;;;;10.90;5.80;;;10.50;99.90;;;;;;5380882;26;20005;-83
2024/04/22 10:06:43;;;;;;;10.70;5.77;;;10.60;99.90;;;;;;5416975;26;20000;-82
2024/04/22 10:09:18;;;;;;;10.48;6.22;;;10.70;99.90;;;;;;5389770;26;20351;-83
2024/04/22 10:12:06;;;;;;;12.55;6.50;;;11.00;99.90;;;;;;5738216;21;20175;-84
2024/04/22 10:14:42;;;;;;;10.38;5.63;;;11.00;99.90;;;;;;5567471;21;21112;-84
2024/04/22 10:17:12;;;;;;;12.15;6.57;;;11.20;99.90;;;;;;5930882;21;20066;-82
2024/04/22 10:24:04;;;;;;;10.85;6.53;;;11.30;99.90;;;;;;5695226;21;20056;-84
2024/04/22 10:28:03;;;;;;;11.50;6.75;;;11.40;99.90;;;;;;5323675;26;19989;-81
2024/04/22 10:30:41;;;;;;;9.60;5.68;;;11.50;99.90;;;;;;5255565;26;20025;-82
2024/04/22 10:33:20;;;;;;;9.85;5.70;;;11.50;99.90;;;;;;5336951;26;20001;-84
2024/04/22 10:36:27;;;;;;;13.40;6.68;;;11.80;99.90;;;;;;5242864;27;19999;-78
2024/04/22 10:39:00;;;;;;;11.25;6.55;;;12.10;99.90;;;;;;5214036;27;20011;-78
2024/04/22 10:41:37;;;;;;;12.30;8.15;;;11.90;99.90;;;;;;5193478;27;20003;-78
2024/04/22 10:44:08;;;;;;;9.98;6.35;;;11.70;99.90;;;;;;5244747;27;20003;-78
2024/04/22 10:46:38;;;;;;;10.05;7.00;;;11.60;99.90;;;;;;5241969;27;20018;-80
2024/04/22 10:49:09;;;;;;;10.23;6.25;;;11.60;99.90;;;;;;5200928;27;20022;-80
2024/04/22 10:51:37;;;;;;;11.32;6.55;;;11.50;99.90;;;;;;5244069;27;20499;-79
2024/04/22 10:54:07;;;;;;;13.07;7.40;;;11.40;99.90;;;;;;5246265;27;20018;-79
2024/04/22 10:56:35;;;;;;;10.95;6.93;;;11.30;99.90;;;;;;5238962;27;20003;-78
2024/04/22 10:59:06;;;;;;;11.30;6.85;;;11.20;99.90;;;;;;5319070;26;20014;-77
2024/04/22 11:01:37;;;;;;;12.63;8.68;;;11.10;99.90;;;;;;5302551;26;20015;-78
2024/04/22 11:04:09;;;;;;;12.30;7.03;;;11.00;99.90;;;;;;5314936;26;20001;-78
2024/04/22 11:06:37;;;;;;;12.20;6.75;;;11.00;99.90;;;;;;5342128;26;20036;-77
2024/04/22 11:09:08;;;;;;;11.45;6.03;;;11.10;99.90;;;;;;5312867;26;20005;-78
2024/04/22 11:11:36;;;;;;;11.65;6.13;;;11.20;99.90;;;;;;5302919;26;20013;-78
2024/04/22 11:14:07;;;;;;;12.13;6.25;;;11.20;99.90;;;;;;5308412;26;20410;-77
2024/04/22 11:16:37;;;;;;;38.88;23.23;;;11.30;99.90;;;;;;5305420;26;20008;-77
2024/04/22 11:19:08;;;;;;;10.98;6.45;;;11.40;99.90;;;;;;5334435;26;20028;-77
2024/04/22 11:21:39;;;;;;;15.68;9.90;;;11.70;99.90;;;;;;5413205;26;20003;-78
2024/04/22 11:24:13;;;;;;;11.47;7.23;;;11.50;99.90;;;;;;5394540;26;20027;-78
2024/04/22 11:26:41;;;;;;;10.48;6.05;;;11.30;99.90;;;;;;5417355;26;20420;-78
2024/04/22 11:29:12;;;;;;;11.27;6.75;;;11.40;99.90;;;;;;5399847;26;20004;-78
2024/04/22 11:31:46;;;;;;;10.80;6.22;;;11.50;99.90;;;;;;5418416;26;20007;-77
2024/04/22 11:34:17;;;;;;;10.70;5.32;;;11.40;99.90;;;;;;5408486;26;20021;-77
2024/04/22 11:36:52;;;;;;;10.63;5.93;;;11.30;99.90;;;;;;5398304;26;20454;-76
2024/04/22 11:39:22;;;;;;;9.82;6.05;;;11.30;99.90;;;;;;5408974;26;20003;-78
2024/04/22 11:41:51;;;;;;;8.57;5.45;;;11.50;99.90;;;;;;5398559;26;19999;-78
2024/04/22 11:44:21;;;;;;;6.72;4.13;;;11.70;99.90;;;;;;5414610;26;20022;-79
2024/04/22 11:46:52;;;;;;;7.00;3.85;;;11.90;99.70;;;;;;5416788;26;20014;-80
2024/04/22 11:49:23;;;;;;;7.03;3.70;;;12.20;97.30;;;;;;5418655;26;20004;-79
2024/04/22 11:51:51;;;;;;;7.22;4.53;;;12.60;99.30;;;;;;5437063;26;20014;-81
2024/04/22 11:54:38;;;;;;;9.77;4.43;;;12.60;99.90;;;;;;5464329;26;20003;-82
2024/04/22 11:57:59;;;;;;;8.90;5.32;;;12.60;99.90;;;;;;5395169;26;20004;-82
2024/04/22 12:00:30;;;;;;;5.78;3.85;;;13.10;99.90;;;;;;5366987;26;20012;-80
2024/04/22 12:03:00;;;;;;;7.10;3.63;;;13.70;99.70;;;;;;5353720;26;19996;-81
2024/04/22 12:05:34;;;;;;;7.10;3.72;;;13.60;96.00;;;;;;5369933;26;20046;-81
2024/04/22 12:08:02;;;;;;;5.93;3.97;;;13.70;95.70;;;;;;5388155;26;20095;-83
2024/04/22 12:10:32;;;;;;;7.85;4.63;;;14.70;95.60;;;;;;5382506;26;20040;-81
2024/04/22 12:13:00;;;;;;;7.75;4.32;;;13.90;93.20;;;;;;5358003;26;19992;-82
2024/04/22 12:15:32;;;;;;;6.25;3.72;;;13.90;93.10;;;;;;5360036;26;20000;-83
2024/04/22 12:18:04;;;;;;;6.90;4.35;;;13.90;93.90;;;;;;5392656;26;20019;-80
2024/04/22 12:20:34;;;;;;;6.50;4.03;;;13.70;92.00;;;;;;5395828;26;20015;-80
2024/04/22 12:23:03;;;;;;;8.15;3.85;;;13.90;94.20;;;;;;5362041;26;20475;-83
2024/04/22 12:25:33;;;;;;;6.32;3.97;;;14.00;91.60;;;;;;5386299;26;20046;-82
2024/04/22 12:28:01;;;;;;;7.78;5.07;;;13.90;88.00;;;;;;5367789;26;20000;-80
2024/04/22 12:30:48;;;;;;;5.70;3.38;;;13.70;88.20;;;;;;5421555;26;20010;-81
2024/04/22 12:33:19;;;;;;;5.07;3.25;;;14.20;93.10;;;;;;5451240;26;20462;-81
2024/04/22 12:35:50;;;;;;;4.43;3.17;;;13.80;86.60;;;;;;5424127;26;21823;-80
2024/04/22 12:38:18;;;;;;;5.22;2.88;;;14.00;89.20;;;;;;5434335;26;20007;-82
2024/04/22 12:40:48;;;;;;;5.65;3.28;;;14.10;86.00;;;;;;5429484;26;20018;-80
2024/04/22 12:43:16;;;;;;;5.78;3.20;;;14.20;87.10;;;;;;5421921;26;20081;-83
2024/04/22 12:45:47;;;;;;;5.90;3.78;;;14.20;83.20;;;;;;5448736;26;20044;-84
2024/04/22 12:51:37;;;;;;;4.85;2.90;;;14.40;86.20;;;;;;5249660;27;20022;-82
2024/04/22 12:54:09;;;;;;;4.75;2.95;;;14.30;86.10;;;;;;5241996;27;20033;-83
2024/04/22 12:56:41;;;;;;;5.03;3.25;;;14.60;90.40;;;;;;5339708;26;20045;-78
2024/04/22 12:59:17;;;;;;;6.70;3.30;;;14.20;82.60;;;;;;5412173;26;20000;-83
2024/04/22 13:01:49;;;;;;;5.60;3.70;;;14.60;86.10;;;;;;5430251;26;19996;-79
2024/04/22 13:04:27;;;;;;;5.25;3.78;;;14.70;82.20;;;;;;5399129;26;20000;-79
2024/04/22 13:07:01;;;;;;;5.53;4.18;;;14.30;86.50;;;;;;5423554;26;20011;-79
2024/04/22 13:09:39;;;;;;;5.25;3.72;;;14.00;86.90;;;;;;5434767;26;20072;-78
2024/04/22 13:12:08;;;;;;;6.15;4.05;;;14.00;88.50;;;;;;5433413;26;20468;-78
2024/04/22 13:14:44;;;;;;;6.47;4.50;;;14.10;88.80;;;;;;5416324;26;20076;-78
2024/04/22 13:17:18;;;;;;;6.07;4.22;;;13.50;87.30;;;;;;5421591;26;20075;-81
2024/04/22 13:19:52;;;;;;;7.03;3.95;;;13.30;89.80;;;;;;5431469;26;20068;-81
2024/04/22 13:22:23;;;;;;;5.10;3.58;;;13.30;90.30;;;;;;5420976;26;20372;-79
2024/04/22 13:24:53;;;;;;;6.10;3.75;;;13.30;90.50;;;;;;5420059;26;20014;-79
2024/04/22 13:27:25;;;;;;;6.28;3.50;;;13.40;90.10;;;;;;5443864;26;20527;-79
2024/04/22 13:29:58;;;;;;;5.38;3.38;;;13.00;88.60;;;;;;5440602;26;20008;-80
2024/04/22 13:32:29;;;;;;;5.07;3.55;;;13.10;88.80;;;;;;5435292;26;20004;-82
2024/04/22 13:35:00;;;;;;;6.28;3.17;;;12.90;89.00;;;;;;5428395;26;19999;-79
2024/04/22 13:37:32;;;;;;;5.63;3.22;;;13.10;89.80;;;;;;5436161;26;20003;-80
2024/04/22 13:40:01;;;;;;;6.90;3.50;;;13.20;90.50;;;;;;5428021;26;20056;-80
2024/04/22 13:42:37;;;;;;;5.75;3.72;;;13.20;90.80;;;;;;5435335;26;20040;-80